Saint Paul, MN (55101)

7:11 AM CDT on August 28, 2016 (GMT -0500)
Maplecrest - Third Acre Wood | | Change Station
Active Advisory: Dense Fog Advisory

Elev 909 ft 45.01 °N, 93.07 °W | Updated 30 seconds ago

Mostly Cloudy
Mostly Cloudy
60.4 °F
Feels Like 60.4 °F
N
0.0
Wind Variable Wind from NNE
Gusts 0.0 mph

Today
High -- | Low -- °F
--% Chance of Precip.
Yesterday
High -- | Low -- °F
Precip. -- in
Pressure 30.14 in
Visibility 10.0 miles
Clouds Mostly Cloudy 300 ft
Mostly Cloudy 2900 ft
Mostly Cloudy 12000 ft
Dew Point 60 °F
Humidity 98%
Rainfall 0.00 in
Snow Depth Not available.
6:30 AM 7:55 PM
Waning Crescent, 16% visible
METAR KSTP 281153Z 06004KT 10SM BKN003 BKN029 BKN120 16/16 A3015 RMK AO2 CIG 002V006 SLP205 70006 T01610156 10172 20150 53012
Pressure 30.14 in
Visibility 10.0 miles
Clouds Mostly Cloudy 300 ft
Mostly Cloudy 2900 ft
Mostly Cloudy 12000 ft
Dew Point 60 °F
Humidity 98%
Rainfall 0.00 in
Snow Depth Not available.
6:30 AM 7:55 PM
Waning Crescent, 16% visible
METAR KSTP 281153Z 06004KT 10SM BKN003 BKN029 BKN120 16/16 A3015 RMK AO2 CIG 002V006 SLP205 70006 T01610156 10172 20150 53012

10-Day Weather Forecast

Almanac

Astronomy

Aug. 28, 2016 Rise Set
Actual Time
Civil Twilight
Nautical Twilight
Astronomical Twilight
Moon
Length of Visible Light
Length of Day
Tomorrow will be .
, % of the Moon is Illuminated

Today's Extremes

State Highs State Lows

Community

WunderPhotos

Upload Photos

1,935,557 photos uploaded!

WunderBlog® & News

Nearby

Air Quality

  Air Quality AQ Index Pollutant
Not available.

Snow Depth

Station Depth Elevation

Earthquake Activity

City Distance Mag. Time & Date
Minimum magnitude displayed is 2.5.

Coastal Water Temperatures

Place Temperature

Stations

Nearby Weather Stations

Station Location Temp. Windchill Dew Point Humidity Wind Precip. Elev Updated Type
                   

Watches & Warnings

Dense Fog Advisory
Issued: 3:23 AM CDT Aug. 28, 2016 – National Weather Service

... Dense fog advisory now in effect until 9 am CDT this morning...

* visibility... less than a quarter mile.

* Impacts... it may be difficult to see the Road when driving early
this morning.

Precautionary/preparedness actions...

A dense fog advisory means visibilities will frequently be
reduced to less than one quarter mile. If driving... slow down...
use your headlights... and leave plenty of distance ahead of you.